sensor_id;sensor_type;location;lat;lon;timestamp;P1;durP1;ratioP1;P2;durP2;ratioP2
70148;SDS011;57514;52.164;5.282;2022-08-06T00:02:18;7.68;;;3.00;;
70148;SDS011;57514;52.164;5.282;2022-08-06T00:04:51;8.88;;;3.22;;
70148;SDS011;57514;52.164;5.282;2022-08-06T00:07:19;9.85;;;2.65;;
70148;SDS011;57514;52.164;5.282;2022-08-06T00:09:51;6.78;;;3.13;;
70148;SDS011;57514;52.164;5.282;2022-08-06T00:12:26;7.18;;;3.47;;
70148;SDS011;57514;52.164;5.282;2022-08-06T00:14:55;7.72;;;3.10;;
70148;SDS011;57514;52.164;5.282;2022-08-06T00:17:23;6.40;;;3.00;;
70148;SDS011;57514;52.164;5.282;2022-08-06T00:19:57;8.75;;;2.80;;
70148;SDS011;57514;52.164;5.282;2022-08-06T00:22:26;6.10;;;2.70;;
70148;SDS011;57514;52.164;5.282;2022-08-06T00:24:55;8.90;;;3.20;;
70148;SDS011;57514;52.164;5.282;2022-08-06T00:27:23;6.05;;;3.10;;
70148;SDS011;57514;52.164;5.282;2022-08-06T00:30:01;8.02;;;3.22;;
70148;SDS011;57514;52.164;5.282;2022-08-06T00:32:31;7.30;;;2.63;;
70148;SDS011;57514;52.164;5.282;2022-08-06T00:34:59;7.07;;;2.95;;
70148;SDS011;57514;52.164;5.282;2022-08-06T00:37:27;7.05;;;3.35;;
70148;SDS011;57514;52.164;5.282;2022-08-06T00:40:15;8.18;;;3.38;;
70148;SDS011;57514;52.164;5.282;2022-08-06T00:42:50;8.13;;;3.00;;
70148;SDS011;57514;52.164;5.282;2022-08-06T00:45:20;7.95;;;3.33;;
70148;SDS011;57514;52.164;5.282;2022-08-06T00:47:50;6.18;;;3.13;;
70148;SDS011;57514;52.164;5.282;2022-08-06T00:50:29;7.03;;;3.33;;
70148;SDS011;57514;52.164;5.282;2022-08-06T00:53:01;6.47;;;2.83;;
70148;SDS011;57514;52.164;5.282;2022-08-06T00:55:29;7.95;;;3.10;;
70148;SDS011;57514;52.164;5.282;2022-08-06T00:58:02;7.32;;;3.15;;
70148;SDS011;57514;52.164;5.282;2022-08-06T01:00:30;6.53;;;3.22;;
70148;SDS011;57514;52.164;5.282;2022-08-06T01:03:04;8.55;;;3.90;;
70148;SDS011;57514;52.164;5.282;2022-08-06T01:05:31;8.07;;;3.60;;
70148;SDS011;57514;52.164;5.282;2022-08-06T01:08:18;7.95;;;3.03;;
70148;SDS011;57514;52.164;5.282;2022-08-06T01:10:45;7.93;;;3.20;;
70148;SDS011;57514;52.164;5.282;2022-08-06T01:13:17;10.10;;;3.50;;
70148;SDS011;57514;52.164;5.282;2022-08-06T01:15:53;8.35;;;3.22;;
70148;SDS011;57514;52.164;5.282;2022-08-06T01:18:35;8.02;;;3.05;;
70148;SDS011;57514;52.164;5.282;2022-08-06T01:21:10;7.40;;;3.35;;
70148;SDS011;57514;52.164;5.282;2022-08-06T01:26:56;8.25;;;3.22;;
70148;SDS011;57514;52.164;5.282;2022-08-06T01:29:35;6.18;;;2.40;;
70148;SDS011;57514;52.164;5.282;2022-08-06T01:32:06;7.60;;;3.35;;
70148;SDS011;57514;52.164;5.282;2022-08-06T01:34:39;9.40;;;3.17;;
70148;SDS011;57514;52.164;5.282;2022-08-06T01:40:10;6.53;;;3.00;;
70148;SDS011;57514;52.164;5.282;2022-08-06T01:42:39;8.98;;;3.13;;
70148;SDS011;57514;52.164;5.282;2022-08-06T01:45:10;8.63;;;3.17;;
70148;SDS011;57514;52.164;5.282;2022-08-06T01:47:38;9.13;;;3.15;;
70148;SDS011;57514;52.164;5.282;2022-08-06T01:50:20;7.32;;;3.30;;
70148;SDS011;57514;52.164;5.282;2022-08-06T01:52:53;7.80;;;3.25;;
70148;SDS011;57514;52.164;5.282;2022-08-06T01:55:26;7.63;;;2.92;;
70148;SDS011;57514;52.164;5.282;2022-08-06T01:58:15;7.40;;;3.20;;
70148;SDS011;57514;52.164;5.282;2022-08-06T02:00:54;6.18;;;3.13;;
70148;SDS011;57514;52.164;5.282;2022-08-06T02:03:28;9.95;;;3.70;;
70148;SDS011;57514;52.164;5.282;2022-08-06T02:06:20;6.18;;;3.00;;
70148;SDS011;57514;52.164;5.282;2022-08-06T02:08:55;7.53;;;3.17;;
70148;SDS011;57514;52.164;5.282;2022-08-06T02:11:22;8.90;;;3.38;;
70148;SDS011;57514;52.164;5.282;2022-08-06T02:14:09;8.65;;;3.45;;
70148;SDS011;57514;52.164;5.282;2022-08-06T02:16:39;5.70;;;3.22;;
70148;SDS011;57514;52.164;5.282;2022-08-06T02:19:08;7.13;;;3.38;;
70148;SDS011;57514;52.164;5.282;2022-08-06T02:21:42;6.80;;;3.30;;
70148;SDS011;57514;52.164;5.282;2022-08-06T02:24:21;6.90;;;2.60;;
70148;SDS011;57514;52.164;5.282;2022-08-06T02:26:51;5.72;;;3.45;;
70148;SDS011;57514;52.164;5.282;2022-08-06T02:29:19;7.93;;;3.22;;
70148;SDS011;57514;52.164;5.282;2022-08-06T02:31:50;11.38;;;3.22;;
70148;SDS011;57514;52.164;5.282;2022-08-06T02:34:19;8.48;;;2.60;;
70148;SDS011;57514;52.164;5.282;2022-08-06T02:37:07;8.80;;;2.63;;
70148;SDS011;57514;52.164;5.282;2022-08-06T02:39:48;7.95;;;3.70;;
70148;SDS011;57514;52.164;5.282;2022-08-06T02:42:22;7.25;;;3.70;;
70148;SDS011;57514;52.164;5.282;2022-08-06T02:44:59;8.77;;;3.33;;
70148;SDS011;57514;52.164;5.282;2022-08-06T02:47:33;6.45;;;3.10;;
70148;SDS011;57514;52.164;5.282;2022-08-06T02:50:24;8.23;;;3.67;;
70148;SDS011;57514;52.164;5.282;2022-08-06T02:52:58;8.25;;;3.42;;
70148;SDS011;57514;52.164;5.282;2022-08-06T02:55:30;9.77;;;3.70;;
70148;SDS011;57514;52.164;5.282;2022-08-06T02:58:08;9.55;;;3.35;;
70148;SDS011;57514;52.164;5.282;2022-08-06T03:00:41;11.30;;;3.88;;
70148;SDS011;57514;52.164;5.282;2022-08-06T03:03:17;8.75;;;3.75;;
70148;SDS011;57514;52.164;5.282;2022-08-06T03:06:00;11.18;;;4.03;;
70148;SDS011;57514;52.164;5.282;2022-08-06T03:08:29;7.55;;;3.85;;
70148;SDS011;57514;52.164;5.282;2022-08-06T03:11:01;6.85;;;2.85;;
70148;SDS011;57514;52.164;5.282;2022-08-06T03:13:29;5.88;;;3.20;;
70148;SDS011;57514;52.164;5.282;2022-08-06T03:16:01;5.97;;;3.05;;
70148;SDS011;57514;52.164;5.282;2022-08-06T03:18:29;8.00;;;3.13;;
70148;SDS011;57514;52.164;5.282;2022-08-06T03:20:57;5.90;;;3.08;;
70148;SDS011;57514;52.164;5.282;2022-08-06T03:23:26;8.85;;;3.30;;
70148;SDS011;57514;52.164;5.282;2022-08-06T03:25:53;8.48;;;3.20;;
70148;SDS011;57514;52.164;5.282;2022-08-06T03:28:21;7.60;;;3.30;;
70148;SDS011;57514;52.164;5.282;2022-08-06T03:30:49;8.82;;;3.63;;
70148;SDS011;57514;52.164;5.282;2022-08-06T03:33:21;7.45;;;3.97;;
70148;SDS011;57514;52.164;5.282;2022-08-06T03:36:07;6.65;;;3.13;;
70148;SDS011;57514;52.164;5.282;2022-08-06T03:38:40;8.00;;;3.42;;
70148;SDS011;57514;52.164;5.282;2022-08-06T03:41:07;8.05;;;3.40;;
70148;SDS011;57514;52.164;5.282;2022-08-06T03:43:35;9.38;;;3.47;;
70148;SDS011;57514;52.164;5.282;2022-08-06T03:46:24;10.05;;;3.53;;
70148;SDS011;57514;52.164;5.282;2022-08-06T03:48:56;11.18;;;3.55;;
70148;SDS011;57514;52.164;5.282;2022-08-06T03:51:25;8.82;;;2.97;;
70148;SDS011;57514;52.164;5.282;2022-08-06T03:54:14;7.53;;;3.20;;
70148;SDS011;57514;52.164;5.282;2022-08-06T03:56:54;10.93;;;3.92;;
70148;SDS011;57514;52.164;5.282;2022-08-06T03:59:23;8.73;;;3.25;;
70148;SDS011;57514;52.164;5.282;2022-08-06T04:02:04;12.48;;;4.55;;
70148;SDS011;57514;52.164;5.282;2022-08-06T04:04:50;9.25;;;3.17;;
70148;SDS011;57514;52.164;5.282;2022-08-06T04:07:17;8.07;;;3.60;;
70148;SDS011;57514;52.164;5.282;2022-08-06T04:09:49;8.68;;;3.65;;
70148;SDS011;57514;52.164;5.282;2022-08-06T04:12:27;11.18;;;3.53;;
70148;SDS011;57514;52.164;5.282;2022-08-06T04:15:14;8.57;;;3.40;;
70148;SDS011;57514;52.164;5.282;2022-08-06T04:17:42;8.15;;;3.28;;
70148;SDS011;57514;52.164;5.282;2022-08-06T04:20:14;7.20;;;3.22;;
70148;SDS011;57514;52.164;5.282;2022-08-06T04:22:56;6.55;;;3.58;;
70148;SDS011;57514;52.164;5.282;2022-08-06T04:25:36;11.75;;;3.33;;
70148;SDS011;57514;52.164;5.282;2022-08-06T04:28:09;8.88;;;3.47;;
70148;SDS011;57514;52.164;5.282;2022-08-06T04:30:39;7.18;;;3.20;;
70148;SDS011;57514;52.164;5.282;2022-08-06T04:33:16;10.23;;;3.33;;
70148;SDS011;57514;52.164;5.282;2022-08-06T04:35:45;24.80;;;4.93;;
70148;SDS011;57514;52.164;5.282;2022-08-06T04:38:32;9.15;;;3.10;;
70148;SDS011;57514;52.164;5.282;2022-08-06T04:41:04;9.55;;;3.20;;
70148;SDS011;57514;52.164;5.282;2022-08-06T04:43:41;7.60;;;3.20;;
70148;SDS011;57514;52.164;5.282;2022-08-06T04:46:20;8.57;;;3.13;;
70148;SDS011;57514;52.164;5.282;2022-08-06T04:48:49;11.40;;;3.75;;
70148;SDS011;57514;52.164;5.282;2022-08-06T04:51:22;9.10;;;3.30;;
70148;SDS011;57514;52.164;5.282;2022-08-06T04:54:09;8.68;;;3.63;;
70148;SDS011;57514;52.164;5.282;2022-08-06T04:56:38;19.85;;;3.50;;
70148;SDS011;57514;52.164;5.282;2022-08-06T05:01:41;17.50;;;3.58;;
70148;SDS011;57514;52.164;5.282;2022-08-06T05:04:27;13.38;;;3.50;;
70148;SDS011;57514;52.164;5.282;2022-08-06T05:09:42;7.88;;;2.97;;
70148;SDS011;57514;52.164;5.282;2022-08-06T05:12:27;7.07;;;3.08;;
70148;SDS011;57514;52.164;5.282;2022-08-06T05:15:10;4.68;;;2.83;;
70148;SDS011;57514;52.164;5.282;2022-08-06T05:17:40;8.50;;;3.53;;
70148;SDS011;57514;52.164;5.282;2022-08-06T05:20:17;8.88;;;2.70;;
70148;SDS011;57514;52.164;5.282;2022-08-06T05:22:58;8.20;;;2.90;;
70148;SDS011;57514;52.164;5.282;2022-08-06T05:25:35;6.95;;;2.60;;
70148;SDS011;57514;52.164;5.282;2022-08-06T05:28:05;6.93;;;2.95;;
70148;SDS011;57514;52.164;5.282;2022-08-06T05:30:44;6.55;;;3.00;;
70148;SDS011;57514;52.164;5.282;2022-08-06T05:33:21;7.30;;;2.65;;
70148;SDS011;57514;52.164;5.282;2022-08-06T05:35:49;8.15;;;3.15;;
70148;SDS011;57514;52.164;5.282;2022-08-06T05:38:29;10.32;;;3.30;;
70148;SDS011;57514;52.164;5.282;2022-08-06T05:41:05;8.63;;;2.55;;
70148;SDS011;57514;52.164;5.282;2022-08-06T05:43:36;8.38;;;3.15;;
70148;SDS011;57514;52.164;5.282;2022-08-06T05:46:24;6.70;;;3.42;;
70148;SDS011;57514;52.164;5.282;2022-08-06T05:49:00;5.45;;;3.10;;
70148;SDS011;57514;52.164;5.282;2022-08-06T05:51:51;6.32;;;3.25;;
70148;SDS011;57514;52.164;5.282;2022-08-06T05:57:10;10.43;;;3.25;;
70148;SDS011;57514;52.164;5.282;2022-08-06T06:00:00;6.30;;;3.75;;
70148;SDS011;57514;52.164;5.282;2022-08-06T06:02:35;6.45;;;3.00;;
70148;SDS011;57514;52.164;5.282;2022-08-06T06:05:06;7.20;;;3.25;;
70148;SDS011;57514;52.164;5.282;2022-08-06T06:07:54;6.97;;;3.25;;
70148;SDS011;57514;52.164;5.282;2022-08-06T06:10:40;6.05;;;2.03;;
70148;SDS011;57514;52.164;5.282;2022-08-06T06:13:19;4.20;;;2.08;;
70148;SDS011;57514;52.164;5.282;2022-08-06T06:16:05;7.25;;;2.78;;
70148;SDS011;57514;52.164;5.282;2022-08-06T06:21:51;6.45;;;2.40;;
70148;SDS011;57514;52.164;5.282;2022-08-06T06:24:32;9.23;;;2.78;;
70148;SDS011;57514;52.164;5.282;2022-08-06T06:30:06;5.47;;;2.30;;
70148;SDS011;57514;52.164;5.282;2022-08-06T06:35:41;5.85;;;1.83;;
70148;SDS011;57514;52.164;5.282;2022-08-06T06:38:38;6.35;;;2.00;;
70148;SDS011;57514;52.164;5.282;2022-08-06T06:41:23;4.40;;;1.73;;
70148;SDS011;57514;52.164;5.282;2022-08-06T06:44:20;3.22;;;1.48;;
70148;SDS011;57514;52.164;5.282;2022-08-06T06:47:15;6.15;;;1.25;;
70148;SDS011;57514;52.164;5.282;2022-08-06T06:50:07;5.30;;;1.30;;
70148;SDS011;57514;52.164;5.282;2022-08-06T06:52:45;2.92;;;1.10;;
70148;SDS011;57514;52.164;5.282;2022-08-06T06:55:22;5.38;;;1.58;;
70148;SDS011;57514;52.164;5.282;2022-08-06T06:58:21;2.80;;;1.05;;
70148;SDS011;57514;52.164;5.282;2022-08-06T07:00:58;5.03;;;1.20;;
70148;SDS011;57514;52.164;5.282;2022-08-06T07:03:45;3.90;;;1.30;;
70148;SDS011;57514;52.164;5.282;2022-08-06T07:06:13;4.47;;;1.20;;
70148;SDS011;57514;52.164;5.282;2022-08-06T07:09:02;4.18;;;1.30;;
70148;SDS011;57514;52.164;5.282;2022-08-06T07:11:40;4.57;;;1.25;;
70148;SDS011;57514;52.164;5.282;2022-08-06T07:14:29;3.58;;;1.38;;
70148;SDS011;57514;52.164;5.282;2022-08-06T07:16:59;4.53;;;1.38;;
70148;SDS011;57514;52.164;5.282;2022-08-06T07:19:47;4.03;;;1.40;;
70148;SDS011;57514;52.164;5.282;2022-08-06T07:22:19;3.42;;;1.63;;
70148;SDS011;57514;52.164;5.282;2022-08-06T07:24:53;6.05;;;1.42;;
70148;SDS011;57514;52.164;5.282;2022-08-06T07:27:26;3.42;;;1.60;;
70148;SDS011;57514;52.164;5.282;2022-08-06T07:30:13;2.83;;;0.88;;
70148;SDS011;57514;52.164;5.282;2022-08-06T07:32:43;2.80;;;1.52;;
70148;SDS011;57514;52.164;5.282;2022-08-06T07:35:18;6.03;;;1.10;;
70148;SDS011;57514;52.164;5.282;2022-08-06T07:37:54;5.10;;;1.17;;
70148;SDS011;57514;52.164;5.282;2022-08-06T07:40:37;2.30;;;1.20;;
70148;SDS011;57514;52.164;5.282;2022-08-06T07:43:13;2.80;;;1.38;;
70148;SDS011;57514;52.164;5.282;2022-08-06T07:45:50;3.83;;;1.30;;
70148;SDS011;57514;52.164;5.282;2022-08-06T07:51:18;5.95;;;1.17;;
70148;SDS011;57514;52.164;5.282;2022-08-06T07:54:00;2.40;;;1.20;;
70148;SDS011;57514;52.164;5.282;2022-08-06T07:56:38;3.45;;;1.05;;
70148;SDS011;57514;52.164;5.282;2022-08-06T07:59:27;8.00;;;1.65;;
70148;SDS011;57514;52.164;5.282;2022-08-06T08:01:56;5.43;;;1.38;;
70148;SDS011;57514;52.164;5.282;2022-08-06T08:04:29;6.45;;;1.30;;
70148;SDS011;57514;52.164;5.282;2022-08-06T08:07:19;3.47;;;1.15;;
70148;SDS011;57514;52.164;5.282;2022-08-06T08:10:09;2.83;;;1.10;;
70148;SDS011;57514;52.164;5.282;2022-08-06T08:12:40;4.20;;;1.38;;
70148;SDS011;57514;52.164;5.282;2022-08-06T08:15:09;5.22;;;1.42;;
70148;SDS011;57514;52.164;5.282;2022-08-06T08:17:48;6.30;;;1.10;;
70148;SDS011;57514;52.164;5.282;2022-08-06T08:20:24;2.72;;;1.20;;
70148;SDS011;57514;52.164;5.282;2022-08-06T08:23:05;5.70;;;1.40;;
70148;SDS011;57514;52.164;5.282;2022-08-06T08:25:51;1.60;;;1.15;;
70148;SDS011;57514;52.164;5.282;2022-08-06T08:28:17;2.92;;;1.27;;
70148;SDS011;57514;52.164;5.282;2022-08-06T08:30:46;3.15;;;1.23;;
70148;SDS011;57514;52.164;5.282;2022-08-06T08:33:16;3.20;;;1.10;;
70148;SDS011;57514;52.164;5.282;2022-08-06T08:35:47;3.78;;;1.20;;
70148;SDS011;57514;52.164;5.282;2022-08-06T08:38:29;2.97;;;1.35;;
70148;SDS011;57514;52.164;5.282;2022-08-06T08:40:59;4.20;;;1.20;;
70148;SDS011;57514;52.164;5.282;2022-08-06T08:43:34;2.08;;;1.02;;
70148;SDS011;57514;52.164;5.282;2022-08-06T08:46:25;2.95;;;1.00;;
70148;SDS011;57514;52.164;5.282;2022-08-06T08:48:57;2.65;;;1.17;;
70148;SDS011;57514;52.164;5.282;2022-08-06T08:51:27;2.42;;;1.20;;
70148;SDS011;57514;52.164;5.282;2022-08-06T08:54:08;2.75;;;1.05;;
70148;SDS011;57514;52.164;5.282;2022-08-06T08:56:42;2.78;;;1.15;;
70148;SDS011;57514;52.164;5.282;2022-08-06T08:59:30;3.47;;;1.48;;
70148;SDS011;57514;52.164;5.282;2022-08-06T09:02:18;1.92;;;1.10;;
70148;SDS011;57514;52.164;5.282;2022-08-06T09:04:49;1.38;;;1.00;;
70148;SDS011;57514;52.164;5.282;2022-08-06T09:07:17;2.22;;;1.23;;
70148;SDS011;57514;52.164;5.282;2022-08-06T09:09:50;1.77;;;0.90;;
70148;SDS011;57514;52.164;5.282;2022-08-06T09:12:27;3.55;;;1.17;;
70148;SDS011;57514;52.164;5.282;2022-08-06T09:15:01;3.08;;;0.77;;
70148;SDS011;57514;52.164;5.282;2022-08-06T09:17:29;2.72;;;0.82;;
70148;SDS011;57514;52.164;5.282;2022-08-06T09:20:16;1.63;;;0.75;;
70148;SDS011;57514;52.164;5.282;2022-08-06T09:22:43;1.95;;;0.98;;
70148;SDS011;57514;52.164;5.282;2022-08-06T09:33:55;2.95;;;1.35;;
70148;SDS011;57514;52.164;5.282;2022-08-06T09:36:47;2.90;;;1.00;;
70148;SDS011;57514;52.164;5.282;2022-08-06T09:39:17;0.70;;;0.70;;
70148;SDS011;57514;52.164;5.282;2022-08-06T09:42:55;3.55;;;1.10;;
70148;SDS011;57514;52.164;5.282;2022-08-06T09:45:17;2.03;;;1.20;;
70148;SDS011;57514;52.164;5.282;2022-08-06T09:48:07;2.28;;;1.00;;
70148;SDS011;57514;52.164;5.282;2022-08-06T09:50:45;1.73;;;1.00;;
70148;SDS011;57514;52.164;5.282;2022-08-06T09:53:12;1.40;;;0.98;;
70148;SDS011;57514;52.164;5.282;2022-08-06T09:55:44;2.85;;;1.02;;
70148;SDS011;57514;52.164;5.282;2022-08-06T09:58:11;2.45;;;0.90;;
70148;SDS011;57514;52.164;5.282;2022-08-06T10:00:39;2.72;;;1.13;;
70148;SDS011;57514;52.164;5.282;2022-08-06T10:03:11;1.70;;;1.15;;
70148;SDS011;57514;52.164;5.282;2022-08-06T10:06:08;2.08;;;1.02;;
70148;SDS011;57514;52.164;5.282;2022-08-06T10:08:40;3.35;;;1.35;;
70148;SDS011;57514;52.164;5.282;2022-08-06T10:11:15;3.33;;;1.02;;
70148;SDS011;57514;52.164;5.282;2022-08-06T10:14:20;3.05;;;0.75;;
70148;SDS011;57514;52.164;5.282;2022-08-06T10:17:18;3.00;;;1.10;;
70148;SDS011;57514;52.164;5.282;2022-08-06T10:22:50;1.75;;;1.20;;
70148;SDS011;57514;52.164;5.282;2022-08-06T10:25:22;1.63;;;1.10;;
70148;SDS011;57514;52.164;5.282;2022-08-06T10:27:55;4.38;;;1.15;;
70148;SDS011;57514;52.164;5.282;2022-08-06T10:30:23;1.55;;;1.13;;
70148;SDS011;57514;52.164;5.282;2022-08-06T10:32:53;2.90;;;1.20;;
70148;SDS011;57514;52.164;5.282;2022-08-06T10:35:25;3.42;;;1.17;;
70148;SDS011;57514;52.164;5.282;2022-08-06T10:37:58;2.38;;;1.17;;
70148;SDS011;57514;52.164;5.282;2022-08-06T10:40:40;1.88;;;0.93;;
70148;SDS011;57514;52.164;5.282;2022-08-06T10:43:23;3.63;;;0.95;;
70148;SDS011;57514;52.164;5.282;2022-08-06T10:45:55;2.35;;;0.90;;
70148;SDS011;57514;52.164;5.282;2022-08-06T10:48:22;1.05;;;0.90;;
70148;SDS011;57514;52.164;5.282;2022-08-06T10:51:10;2.10;;;1.00;;
70148;SDS011;57514;52.164;5.282;2022-08-06T10:53:39;3.03;;;0.88;;
70148;SDS011;57514;52.164;5.282;2022-08-06T10:56:27;1.75;;;0.52;;
70148;SDS011;57514;52.164;5.282;2022-08-06T10:59:05;2.13;;;0.93;;
70148;SDS011;57514;52.164;5.282;2022-08-06T11:01:38;2.00;;;0.90;;
70148;SDS011;57514;52.164;5.282;2022-08-06T11:16:03;1.63;;;0.93;;
70148;SDS011;57514;52.164;5.282;2022-08-06T11:18:31;1.80;;;0.80;;
70148;SDS011;57514;52.164;5.282;2022-08-06T11:21:01;2.45;;;0.88;;
70148;SDS011;57514;52.164;5.282;2022-08-06T11:23:31;3.20;;;0.95;;
70148;SDS011;57514;52.164;5.282;2022-08-06T11:26:32;2.90;;;0.90;;
70148;SDS011;57514;52.164;5.282;2022-08-06T11:29:10;4.78;;;1.10;;
70148;SDS011;57514;52.164;5.282;2022-08-06T11:31:45;3.05;;;1.23;;
70148;SDS011;57514;52.164;5.282;2022-08-06T11:34:22;1.60;;;1.13;;
70148;SDS011;57514;52.164;5.282;2022-08-06T11:46:35;4.50;;;1.25;;
70148;SDS011;57514;52.164;5.282;2022-08-06T11:49:21;2.03;;;1.10;;
70148;SDS011;57514;52.164;5.282;2022-08-06T11:51:59;3.17;;;0.82;;
70148;SDS011;57514;52.164;5.282;2022-08-06T12:08:09;3.47;;;1.20;;
70148;SDS011;57514;52.164;5.282;2022-08-06T12:13:53;2.95;;;1.08;;
70148;SDS011;57514;52.164;5.282;2022-08-06T12:16:40;1.50;;;0.77;;
70148;SDS011;57514;52.164;5.282;2022-08-06T12:19:19;1.95;;;0.80;;
70148;SDS011;57514;52.164;5.282;2022-08-06T12:21:53;2.97;;;0.75;;
70148;SDS011;57514;52.164;5.282;2022-08-06T12:24:23;2.70;;;0.98;;
70148;SDS011;57514;52.164;5.282;2022-08-06T12:27:12;3.13;;;0.82;;
70148;SDS011;57514;52.164;5.282;2022-08-06T12:29:40;2.90;;;0.98;;
70148;SDS011;57514;52.164;5.282;2022-08-06T12:32:28;1.70;;;0.82;;
70148;SDS011;57514;52.164;5.282;2022-08-06T12:34:57;2.60;;;1.00;;
70148;SDS011;57514;52.164;5.282;2022-08-06T12:37:39;2.15;;;0.95;;
70148;SDS011;57514;52.164;5.282;2022-08-06T12:40:16;2.38;;;1.15;;
70148;SDS011;57514;52.164;5.282;2022-08-06T12:45:40;2.03;;;1.00;;
70148;SDS011;57514;52.164;5.282;2022-08-06T12:48:27;2.72;;;0.90;;
70148;SDS011;57514;52.164;5.282;2022-08-06T12:51:01;1.83;;;1.15;;
70148;SDS011;57514;52.164;5.282;2022-08-06T12:53:40;1.85;;;1.00;;
70148;SDS011;57514;52.164;5.282;2022-08-06T12:56:24;2.40;;;1.00;;
70148;SDS011;57514;52.164;5.282;2022-08-06T12:58:56;1.98;;;1.08;;
70148;SDS011;57514;52.164;5.282;2022-08-06T13:01:26;3.17;;;1.08;;
70148;SDS011;57514;52.164;5.282;2022-08-06T13:04:14;2.85;;;1.40;;
70148;SDS011;57514;52.164;5.282;2022-08-06T13:06:43;4.25;;;1.10;;
70148;SDS011;57514;52.164;5.282;2022-08-06T13:09:13;1.67;;;1.25;;
70148;SDS011;57514;52.164;5.282;2022-08-06T13:11:41;3.33;;;1.00;;
70148;SDS011;57514;52.164;5.282;2022-08-06T13:14:16;2.45;;;1.30;;
70148;SDS011;57514;52.164;5.282;2022-08-06T13:16:45;1.17;;;0.70;;
70148;SDS011;57514;52.164;5.282;2022-08-06T13:19:20;4.55;;;1.10;;
70148;SDS011;57514;52.164;5.282;2022-08-06T13:22:04;1.88;;;1.27;;
70148;SDS011;57514;52.164;5.282;2022-08-06T13:24:32;3.33;;;1.20;;
70148;SDS011;57514;52.164;5.282;2022-08-06T13:27:00;2.92;;;1.20;;
70148;SDS011;57514;52.164;5.282;2022-08-06T13:29:33;2.95;;;0.82;;
70148;SDS011;57514;52.164;5.282;2022-08-06T13:32:23;2.75;;;1.25;;
70148;SDS011;57514;52.164;5.282;2022-08-06T13:35:03;1.10;;;1.00;;
70148;SDS011;57514;52.164;5.282;2022-08-06T13:43:19;3.38;;;1.50;;
70148;SDS011;57514;52.164;5.282;2022-08-06T13:46:12;2.90;;;1.10;;
70148;SDS011;57514;52.164;5.282;2022-08-06T13:48:46;2.08;;;1.13;;
70148;SDS011;57514;52.164;5.282;2022-08-06T13:51:19;2.80;;;1.40;;
70148;SDS011;57514;52.164;5.282;2022-08-06T13:53:54;2.10;;;1.20;;
70148;SDS011;57514;52.164;5.282;2022-08-06T13:56:24;3.47;;;0.93;;
70148;SDS011;57514;52.164;5.282;2022-08-06T13:58:55;1.60;;;1.20;;
70148;SDS011;57514;52.164;5.282;2022-08-06T14:01:23;5.95;;;1.55;;
70148;SDS011;57514;52.164;5.282;2022-08-06T14:04:00;2.75;;;1.40;;
70148;SDS011;57514;52.164;5.282;2022-08-06T14:06:27;4.47;;;1.60;;
70148;SDS011;57514;52.164;5.282;2022-08-06T14:08:54;3.17;;;1.50;;
70148;SDS011;57514;52.164;5.282;2022-08-06T14:11:25;2.70;;;1.60;;
70148;SDS011;57514;52.164;5.282;2022-08-06T14:13:53;3.95;;;1.40;;
70148;SDS011;57514;52.164;5.282;2022-08-06T14:16:20;4.28;;;1.50;;
70148;SDS011;57514;52.164;5.282;2022-08-06T14:18:49;3.50;;;1.60;;
70148;SDS011;57514;52.164;5.282;2022-08-06T14:21:29;3.30;;;1.67;;
70148;SDS011;57514;52.164;5.282;2022-08-06T14:23:59;4.07;;;1.80;;
70148;SDS011;57514;52.164;5.282;2022-08-06T14:26:32;2.85;;;1.40;;
70148;SDS011;57514;52.164;5.282;2022-08-06T14:29:03;2.58;;;1.70;;
70148;SDS011;57514;52.164;5.282;2022-08-06T14:31:50;5.03;;;1.92;;
70148;SDS011;57514;52.164;5.282;2022-08-06T14:34:25;4.38;;;1.92;;
70148;SDS011;57514;52.164;5.282;2022-08-06T14:37:01;1.98;;;1.38;;
70148;SDS011;57514;52.164;5.282;2022-08-06T14:39:28;2.40;;;1.38;;
70148;SDS011;57514;52.164;5.282;2022-08-06T14:42:15;4.70;;;1.95;;
70148;SDS011;57514;52.164;5.282;2022-08-06T14:45:03;5.50;;;1.90;;
70148;SDS011;57514;52.164;5.282;2022-08-06T14:47:32;2.45;;;1.70;;
70148;SDS011;57514;52.164;5.282;2022-08-06T14:50:19;2.97;;;1.70;;
70148;SDS011;57514;52.164;5.282;2022-08-06T14:53:02;3.53;;;1.73;;
70148;SDS011;57514;52.164;5.282;2022-08-06T14:55:32;3.33;;;1.90;;
70148;SDS011;57514;52.164;5.282;2022-08-06T14:58:00;3.35;;;1.70;;
70148;SDS011;57514;52.164;5.282;2022-08-06T15:00:32;5.95;;;1.77;;
70148;SDS011;57514;52.164;5.282;2022-08-06T15:03:03;5.07;;;2.08;;
70148;SDS011;57514;52.164;5.282;2022-08-06T15:05:38;3.72;;;1.70;;
70148;SDS011;57514;52.164;5.282;2022-08-06T15:08:25;4.18;;;1.90;;
70148;SDS011;57514;52.164;5.282;2022-08-06T15:10:52;3.05;;;2.00;;
70148;SDS011;57514;52.164;5.282;2022-08-06T15:13:19;3.70;;;1.92;;
70148;SDS011;57514;52.164;5.282;2022-08-06T15:18:28;2.60;;;1.70;;
70148;SDS011;57514;52.164;5.282;2022-08-06T15:21:15;2.63;;;1.67;;
70148;SDS011;57514;52.164;5.282;2022-08-06T15:23:47;3.15;;;1.70;;
70148;SDS011;57514;52.164;5.282;2022-08-06T15:26:20;3.28;;;1.55;;
70148;SDS011;57514;52.164;5.282;2022-08-06T15:29:08;3.30;;;1.80;;
70148;SDS011;57514;52.164;5.282;2022-08-06T15:31:40;4.13;;;1.80;;
70148;SDS011;57514;52.164;5.282;2022-08-06T15:34:07;3.67;;;1.63;;
70148;SDS011;57514;52.164;5.282;2022-08-06T15:36:37;2.65;;;1.60;;
70148;SDS011;57514;52.164;5.282;2022-08-06T15:39:24;5.63;;;1.77;;
70148;SDS011;57514;52.164;5.282;2022-08-06T15:42:11;3.42;;;1.65;;
70148;SDS011;57514;52.164;5.282;2022-08-06T15:44:39;3.30;;;1.85;;
70148;SDS011;57514;52.164;5.282;2022-08-06T15:47:07;3.72;;;1.90;;
70148;SDS011;57514;52.164;5.282;2022-08-06T15:49:36;4.40;;;1.70;;
70148;SDS011;57514;52.164;5.282;2022-08-06T15:52:23;3.97;;;2.33;;
70148;SDS011;57514;52.164;5.282;2022-08-06T15:54:51;3.85;;;1.98;;
70148;SDS011;57514;52.164;5.282;2022-08-06T15:57:19;4.72;;;1.80;;
70148;SDS011;57514;52.164;5.282;2022-08-06T16:00:08;5.07;;;1.90;;
70148;SDS011;57514;52.164;5.282;2022-08-06T16:02:43;4.35;;;2.00;;
70148;SDS011;57514;52.164;5.282;2022-08-06T16:05:16;3.70;;;1.52;;
70148;SDS011;57514;52.164;5.282;2022-08-06T16:08:05;4.03;;;1.70;;
70148;SDS011;57514;52.164;5.282;2022-08-06T16:10:48;4.63;;;2.20;;
70148;SDS011;57514;52.164;5.282;2022-08-06T16:13:16;5.30;;;2.17;;
70148;SDS011;57514;52.164;5.282;2022-08-06T16:15:46;5.15;;;2.00;;
70148;SDS011;57514;52.164;5.282;2022-08-06T16:18:18;6.50;;;2.25;;
70148;SDS011;57514;52.164;5.282;2022-08-06T16:20:59;4.63;;;2.28;;
70148;SDS011;57514;52.164;5.282;2022-08-06T16:23:31;3.88;;;2.10;;
70148;SDS011;57514;52.164;5.282;2022-08-06T16:26:18;4.60;;;1.92;;
70148;SDS011;57514;52.164;5.282;2022-08-06T16:29:06;4.05;;;1.85;;
70148;SDS011;57514;52.164;5.282;2022-08-06T16:31:34;4.05;;;1.80;;
70148;SDS011;57514;52.164;5.282;2022-08-06T16:34:12;3.25;;;2.10;;
70148;SDS011;57514;52.164;5.282;2022-08-06T16:36:38;4.28;;;2.40;;
70148;SDS011;57514;52.164;5.282;2022-08-06T16:41:38;3.47;;;1.83;;
70148;SDS011;57514;52.164;5.282;2022-08-06T16:44:26;5.05;;;1.83;;
70148;SDS011;57514;52.164;5.282;2022-08-06T16:47:02;5.82;;;2.10;;
70148;SDS011;57514;52.164;5.282;2022-08-06T16:49:32;7.97;;;1.52;;
70148;SDS011;57514;52.164;5.282;2022-08-06T16:52:19;4.78;;;1.83;;
70148;SDS011;57514;52.164;5.282;2022-08-06T16:55:07;5.78;;;1.85;;
70148;SDS011;57514;52.164;5.282;2022-08-06T16:57:34;2.75;;;1.60;;
70148;SDS011;57514;52.164;5.282;2022-08-06T17:00:04;5.05;;;2.00;;
70148;SDS011;57514;52.164;5.282;2022-08-06T17:05:15;6.15;;;2.03;;
70148;SDS011;57514;52.164;5.282;2022-08-06T17:07:47;2.78;;;1.63;;
70148;SDS011;57514;52.164;5.282;2022-08-06T17:10:19;3.88;;;1.88;;
70148;SDS011;57514;52.164;5.282;2022-08-06T17:12:51;3.22;;;1.60;;
70148;SDS011;57514;52.164;5.282;2022-08-06T17:15:27;4.68;;;1.83;;